Time,TemperatureF,DewpointF,PressureIn,WindDirection,WindDirectionDegrees,WindSpeedMPH,WindSpeedGustMPH,Humidity,HourlyPrecipIn,Conditions,Clouds,dailyrainin,SoftwareType,DateUTC
2013-05-22 00:04:00,68.7,22.2,25.22,NW,319,3.1,4.0,17,0.00,,---,0.00,VWS V14.00,2013-05-22 07:04:00,
2013-05-22 00:09:00,68.5,22.0,25.22,WNW,302,3.6,3.6,17,0.00,,---,0.00,VWS V14.00,2013-05-22 07:09:00,
2013-05-22 00:14:00,68.5,22.0,25.22,WNW,302,0.0,0.0,17,0.00,,---,0.00,VWS V14.00,2013-05-22 07:14:00,
2013-05-22 00:19:00,66.4,20.3,25.22,WSW,239,0.0,0.0,17,0.00,,---,0.00,VWS V14.00,2013-05-22 07:19:00,
2013-05-22 00:24:00,65.5,20.9,25.22,East,101,0.0,0.0,18,0.00,,---,0.00,VWS V14.00,2013-05-22 07:24:00,
2013-05-22 00:29:00,64.8,20.3,25.22,East,101,0.0,0.0,18,0.00,,---,0.00,VWS V14.00,2013-05-22 07:29:00,
2013-05-22 00:34:00,64.2,19.9,25.22,South,178,3.1,4.0,18,0.00,,---,0.00,VWS V14.00,2013-05-22 07:34:00,
2013-05-22 00:39:00,64.4,20.0,25.22,South,179,0.0,0.0,18,0.00,,---,0.00,VWS V14.00,2013-05-22 07:39:00,
2013-05-22 00:44:00,64.0,19.7,25.22,South,179,0.0,0.0,18,0.00,,---,0.00,VWS V14.00,2013-05-22 07:44:00,
2013-05-22 00:49:00,63.1,19.0,25.22,South,187,0.0,0.0,18,0.00,,---,0.00,VWS V14.00,2013-05-22 07:49:00,
2013-05-22 00:54:00,62.2,19.5,25.22,South,187,0.0,0.0,19,0.00,,---,0.00,VWS V14.00,2013-05-22 07:54:00,
2013-05-22 00:59:00,62.1,19.3,25.22,South,187,0.0,0.0,19,0.00,,---,0.00,VWS V14.00,2013-05-22 07:59:00,
2013-05-22 01:04:00,62.1,19.3,25.22,South,187,0.0,0.0,19,0.00,,---,0.00,VWS V14.00,2013-05-22 08:04:00,
2013-05-22 01:09:00,62.2,19.5,25.22,SW,234,0.0,0.0,19,0.00,,---,0.00,VWS V14.00,2013-05-22 08:09:00,
2013-05-22 01:14:00,63.3,19.1,25.22,WSW,241,5.4,8.1,18,0.00,,---,0.00,VWS V14.00,2013-05-22 08:14:00,
2013-05-22 01:19:00,66.7,20.6,25.22,West,261,6.3,8.1,17,0.00,,---,0.00,VWS V14.00,2013-05-22 08:19:00,
2013-05-22 01:24:00,68.4,21.9,25.22,West,259,7.6,8.3,17,0.00,,---,0.00,VWS V14.00,2013-05-22 08:24:00,
2013-05-22 01:29:00,68.4,21.9,25.22,West,275,8.7,9.2,17,0.00,,---,0.00,VWS V14.00,2013-05-22 08:29:00,
2013-05-22 01:34:00,69.1,22.5,25.22,WSW,258,8.1,10.5,17,0.00,,---,0.00,VWS V14.00,2013-05-22 08:34:00,
2013-05-22 01:39:00,68.5,22.0,25.22,West,264,7.6,9.6,17,0.00,,---,0.00,VWS V14.00,2013-05-22 08:39:00,
2013-05-22 01:44:00,68.5,22.0,25.22,West,269,7.6,8.3,17,0.00,,---,0.00,VWS V14.00,2013-05-22 08:44:00,
2013-05-22 01:49:00,67.6,21.3,25.22,WSW,256,8.7,9.6,17,0.00,,---,0.00,VWS V14.00,2013-05-22 08:49:00,
2013-05-22 01:54:00,67.6,21.3,25.22,WSW,252,6.3,8.7,17,0.00,,---,0.00,VWS V14.00,2013-05-22 08:54:00,
2013-05-22 01:59:00,67.3,21.0,25.22,West,261,10.1,10.1,17,0.00,,---,0.00,VWS V14.00,2013-05-22 08:59:00,
2013-05-22 02:04:00,66.9,20.7,25.22,WSW,254,8.7,8.7,17,0.00,,---,0.00,VWS V14.00,2013-05-22 09:04:00,
2013-05-22 02:09:00,66.6,20.4,25.22,West,262,8.1,8.3,17,0.00,,---,0.00,VWS V14.00,2013-05-22 09:09:00,
2013-05-22 02:14:00,66.0,21.3,25.22,West,267,8.3,10.1,18,0.00,,---,0.00,VWS V14.00,2013-05-22 09:14:00,
2013-05-22 02:19:00,65.8,21.2,25.22,WSW,250,8.7,8.7,18,0.00,,---,0.00,VWS V14.00,2013-05-22 09:19:00,
2013-05-22 02:24:00,65.7,21.0,25.22,WSW,251,7.6,8.1,18,0.00,,---,0.00,VWS V14.00,2013-05-22 09:24:00,
2013-05-22 02:29:00,65.7,21.0,25.22,WSW,243,8.3,11.0,18,0.00,,---,0.00,VWS V14.00,2013-05-22 09:29:00,
2013-05-22 02:34:00,65.7,21.0,25.22,WSW,257,7.6,8.7,18,0.00,,---,0.00,VWS V14.00,2013-05-22 09:34:00,
2013-05-22 02:39:00,68.5,22.0,25.22,West,266,7.6,7.6,17,0.00,,---,0.00,VWS V14.00,2013-05-22 09:39:00,
2013-05-22 02:44:00,68.7,22.2,25.22,West,270,7.6,8.1,17,0.00,,---,0.00,VWS V14.00,2013-05-22 09:44:00,
2013-05-22 02:49:00,68.0,21.6,25.22,WSW,257,7.2,8.3,17,0.00,,---,0.00,VWS V14.00,2013-05-22 09:49:00,
2013-05-22 02:54:00,67.5,21.2,25.22,West,268,8.3,10.1,17,0.00,,---,0.00,VWS V14.00,2013-05-22 09:54:00,
2013-05-22 02:59:00,67.5,21.2,25.22,West,262,8.3,8.7,17,0.00,,---,0.00,VWS V14.00,2013-05-22 09:59:00,
2013-05-22 03:05:00,67.5,21.2,25.22,WNW,297,8.3,8.3,17,0.00,,---,0.00,VWS V14.00,2013-05-22 10:05:00,
2013-05-22 03:10:00,67.8,21.5,25.22,West,259,7.6,8.3,17,0.00,,---,0.00,VWS V14.00,2013-05-22 10:10:00,
2013-05-22 03:15:00,67.8,21.5,25.22,WSW,253,7.6,7.6,17,0.00,,---,0.00,VWS V14.00,2013-05-22 10:15:00,
2013-05-22 03:20:00,67.8,21.5,25.22,West,261,4.9,6.3,17,0.00,,---,0.00,VWS V14.00,2013-05-22 10:20:00,
2013-05-22 03:25:00,67.1,20.9,25.22,West,265,5.4,5.8,17,0.00,,---,0.00,VWS V14.00,2013-05-22 10:25:00,
2013-05-22 03:30:00,66.7,20.6,25.22,West,270,6.3,6.3,17,0.00,,---,0.00,VWS V14.00,2013-05-22 10:30:00,
2013-05-22 03:35:00,66.7,20.6,25.22,WSW,257,6.3,6.3,17,0.00,,---,0.00,VWS V14.00,2013-05-22 10:35:00,
2013-05-22 03:40:00,66.0,21.3,25.22,WSW,257,4.0,4.0,18,0.00,,---,0.00,VWS V14.00,2013-05-22 10:40:00,
2013-05-22 03:45:00,65.1,20.6,25.22,WSW,257,2.7,3.1,18,0.00,,---,0.00,VWS V14.00,2013-05-22 10:45:00,
2013-05-22 03:50:00,63.7,19.4,25.22,WSW,257,0.0,0.0,18,0.00,,---,0.00,VWS V14.00,2013-05-22 10:50:00,
2013-05-22 03:55:00,63.0,18.8,25.22,WSW,257,0.0,0.0,18,0.00,,---,0.00,VWS V14.00,2013-05-22 10:55:00,
2013-05-22 04:00:00,62.6,18.5,25.22,WSW,253,2.7,3.1,18,0.00,,---,0.00,VWS V14.00,2013-05-22 11:00:00,
2013-05-22 04:05:00,63.1,19.0,25.22,WSW,252,0.0,0.0,18,0.00,,---,0.00,VWS V14.00,2013-05-22 11:05:00,
2013-05-22 04:10:00,62.8,18.7,25.22,WSW,253,0.0,0.0,18,0.00,,---,0.00,VWS V14.00,2013-05-22 11:10:00,
2013-05-22 04:15:00,61.5,18.9,25.22,WSW,253,0.0,0.0,19,0.00,,---,0.00,VWS V14.00,2013-05-22 11:15:00,
2013-05-22 04:20:00,60.6,15.6,25.22,WSW,253,0.0,0.0,17,0.00,,---,0.00,VWS V14.00,2013-05-22 11:20:00,
2013-05-22 04:25:00,59.5,14.7,25.22,WSW,253,0.0,0.0,17,0.00,,---,0.00,VWS V14.00,2013-05-22 11:25:00,
2013-05-22 04:30:00,58.8,14.1,25.22,WSW,253,0.0,0.0,17,0.00,,---,0.00,VWS V14.00,2013-05-22 11:30:00,
2013-05-22 04:35:00,58.5,13.8,25.22,WSW,253,0.0,0.0,17,0.00,,---,0.00,VWS V14.00,2013-05-22 11:35:00,
2013-05-22 04:40:00,57.6,13.1,25.22,WSW,253,2.7,2.7,17,0.00,,---,0.00,VWS V14.00,2013-05-22 11:40:00,
2013-05-22 04:45:00,56.7,12.4,25.22,WSW,253,2.7,4.5,17,0.00,,---,0.00,VWS V14.00,2013-05-22 11:45:00,
2013-05-22 04:50:00,55.9,11.8,25.22,WSW,253,3.1,3.6,17,0.00,,---,0.00,VWS V14.00,2013-05-22 11:50:00,
2013-05-22 04:55:00,55.0,12.3,25.22,WSW,253,2.7,4.0,18,0.00,,---,0.00,VWS V14.00,2013-05-22 11:55:00,
2013-05-22 05:00:00,54.7,12.0,25.22,WSW,253,0.0,0.0,18,0.00,,---,0.00,VWS V14.00,2013-05-22 12:00:00,
2013-05-22 05:05:00,54.3,11.7,25.22,WSW,252,3.6,4.0,18,0.00,,---,0.00,VWS V14.00,2013-05-22 12:05:00,
2013-05-22 05:10:00,54.3,11.7,25.22,WSW,252,3.1,4.0,18,0.00,,---,0.00,VWS V14.00,2013-05-22 12:10:00,
2013-05-22 05:15:00,54.7,12.0,25.22,WSW,252,2.7,3.6,18,0.00,,---,0.00,VWS V14.00,2013-05-22 12:15:00,
2013-05-22 05:20:00,54.7,12.0,25.22,WSW,252,0.0,0.0,18,0.00,,---,0.00,VWS V14.00,2013-05-22 12:20:00,
2013-05-22 05:25:00,54.5,11.9,25.22,WSW,252,3.6,4.0,18,0.00,,---,0.00,VWS V14.00,2013-05-22 12:25:00,
2013-05-22 05:30:00,54.9,12.2,25.22,WSW,252,3.1,4.0,18,0.00,,---,0.00,VWS V14.00,2013-05-22 12:30:00,
2013-05-22 05:35:00,55.6,11.5,25.22,WSW,252,3.6,3.6,17,0.00,,---,0.00,VWS V14.00,2013-05-22 12:35:00,
2013-05-22 05:40:00,55.9,11.8,25.22,WSW,252,0.0,0.0,17,0.00,,---,0.00,VWS V14.00,2013-05-22 12:40:00,
2013-05-22 05:45:00,56.5,12.2,25.22,WSW,252,0.0,0.0,17,0.00,,---,0.00,VWS V14.00,2013-05-22 12:45:00,
2013-05-22 05:50:00,56.7,12.4,25.22,WSW,252,0.0,0.0,17,0.00,,---,0.00,VWS V14.00,2013-05-22 12:50:00,
2013-05-22 05:55:00,56.7,12.4,25.22,East,79,0.0,0.0,17,0.00,,---,0.00,VWS V14.00,2013-05-22 12:55:00,
2013-05-22 06:00:00,59.4,14.6,25.22,East,79,0.0,0.0,17,0.00,,---,0.00,VWS V14.00,2013-05-22 13:00:00,
2013-05-22 06:05:00,60.8,14.4,25.22,East,79,0.0,0.0,16,0.00,,---,0.00,VWS V14.00,2013-05-22 13:05:00,
2013-05-22 06:10:00,60.8,14.4,25.22,East,79,0.0,0.0,16,0.00,,---,0.00,VWS V14.00,2013-05-22 13:10:00,
2013-05-22 06:15:00,63.5,19.3,25.22,East,79,0.0,0.0,18,0.00,,---,0.00,VWS V14.00,2013-05-22 13:15:00,
2013-05-22 06:20:00,65.1,20.6,25.22,East,79,0.0,0.0,18,0.00,,---,0.00,VWS V14.00,2013-05-22 13:20:00,
2013-05-22 06:25:00,66.6,20.4,25.22,East,79,0.0,0.0,17,0.00,,---,0.00,VWS V14.00,2013-05-22 13:25:00,
2013-05-22 06:30:00,66.6,20.4,25.25,ENE,78,0.0,0.0,17,0.00,,---,0.00,VWS V14.00,2013-05-22 13:30:00,
2013-05-22 06:35:00,66.6,20.4,25.25,ENE,78,0.0,0.0,17,0.00,,---,0.00,VWS V14.00,2013-05-22 13:35:00,
2013-05-22 06:40:00,66.6,20.4,25.25,ENE,77,0.0,0.0,17,0.00,,---,0.00,VWS V14.00,2013-05-22 13:40:00,
2013-05-22 06:45:00,66.6,20.4,25.25,NE,37,0.0,2.2,17,0.00,,---,0.00,VWS V14.00,2013-05-22 13:45:00,
2013-05-22 06:50:00,66.6,20.4,25.25,NE,37,0.0,0.0,17,0.00,,---,0.00,VWS V14.00,2013-05-22 13:50:00,
2013-05-22 06:55:00,66.6,20.4,25.25,NE,37,0.0,0.0,17,0.00,,---,0.00,VWS V14.00,2013-05-22 13:55:00,
2013-05-22 07:00:00,66.6,20.4,25.25,NE,37,0.0,0.0,17,0.00,,---,0.00,VWS V14.00,2013-05-22 14:00:00,
2013-05-22 07:05:00,66.6,20.4,25.25,NE,35,0.0,0.0,17,0.00,,---,0.00,VWS V14.00,2013-05-22 14:05:00,
2013-05-22 07:10:00,66.6,20.4,25.25,NE,35,0.0,0.0,17,0.00,,---,0.00,VWS V14.00,2013-05-22 14:10:00,
2013-05-22 07:15:00,66.6,20.4,25.25,NE,35,0.0,0.0,17,0.00,,---,0.00,VWS V14.00,2013-05-22 14:15:00,
2013-05-22 07:21:00,66.6,20.4,25.25,NE,54,0.0,0.0,17,0.00,,---,0.00,VWS V14.00,2013-05-22 14:21:00,
2013-05-22 07:26:00,66.6,20.4,25.25,NE,54,0.0,0.0,17,0.00,,---,0.00,VWS V14.00,2013-05-22 14:26:00,
2013-05-22 07:31:00,66.6,20.4,25.25,NE,56,0.0,0.0,17,0.00,,---,0.00,VWS V14.00,2013-05-22 14:31:00,
2013-05-22 07:36:00,66.6,20.4,25.25,NE,45,0.0,0.0,17,0.00,,---,0.00,VWS V14.00,2013-05-22 14:36:00,
2013-05-22 07:41:00,66.6,20.4,25.25,NE,38,4.5,4.5,17,0.00,,---,0.00,VWS V14.00,2013-05-22 14:41:00,
2013-05-22 07:46:00,66.6,20.4,25.25,ENE,57,3.1,3.1,17,0.00,,---,0.00,VWS V14.00,2013-05-22 14:46:00,
2013-05-22 07:51:00,66.6,20.4,25.25,ENE,64,0.0,3.1,17,0.00,,---,0.00,VWS V14.00,2013-05-22 14:51:00,
2013-05-22 07:56:00,66.6,20.4,25.25,NE,47,0.0,2.7,17,0.00,,---,0.00,VWS V14.00,2013-05-22 14:56:00,
2013-05-22 08:01:00,66.6,20.4,25.25,NE,51,0.0,0.0,17,0.00,,---,0.00,VWS V14.00,2013-05-22 15:01:00,
2013-05-22 08:06:00,66.6,20.4,25.25,ENE,61,0.0,2.7,17,0.00,,---,0.00,VWS V14.00,2013-05-22 15:06:00,
2013-05-22 08:11:00,66.6,20.4,25.25,NE,42,0.0,2.7,17,0.00,,---,0.00,VWS V14.00,2013-05-22 15:11:00,
2013-05-22 08:16:00,66.6,20.4,25.25,ENE,63,0.0,0.0,17,0.00,,---,0.00,VWS V14.00,2013-05-22 15:16:00,
2013-05-22 08:21:00,66.6,20.4,25.25,ENE,63,0.0,4.9,17,0.00,,---,0.00,VWS V14.00,2013-05-22 15:21:00,
2013-05-22 08:26:00,66.6,20.4,25.25,ENE,68,0.0,2.7,17,0.00,,---,0.00,VWS V14.00,2013-05-22 15:26:00,
2013-05-22 08:31:00,76.8,25.7,25.25,East,96,3.6,4.0,15,0.00,,---,0.00,VWS V14.00,2013-05-22 15:31:00,
2013-05-22 08:36:00,76.8,25.7,25.25,ENE,76,5.4,5.4,15,0.00,,---,0.00,VWS V14.00,2013-05-22 15:36:00,
2013-05-22 08:41:00,76.8,25.7,25.25,East,85,2.7,2.7,15,0.00,,---,0.00,VWS V14.00,2013-05-22 15:41:00,
2013-05-22 08:46:00,77.2,26.0,25.25,NE,45,0.0,4.0,15,0.00,,---,0.00,VWS V14.00,2013-05-22 15:46:00,
2013-05-22 08:51:00,77.2,26.0,25.25,SE,140,0.0,4.0,15,0.00,,---,0.00,VWS V14.00,2013-05-22 15:51:00,
2013-05-22 08:56:00,77.2,26.0,25.25,ESE,102,0.0,3.6,15,0.00,,---,0.00,VWS V14.00,2013-05-22 15:56:00,
2013-05-22 09:01:00,77.2,26.0,25.25,NE,56,3.1,3.1,15,0.00,,---,0.00,VWS V14.00,2013-05-22 16:01:00,
2013-05-22 09:06:00,77.2,26.0,25.25,ENE,68,4.0,4.9,15,0.00,,---,0.00,VWS V14.00,2013-05-22 16:06:00,
2013-05-22 09:11:00,77.2,26.0,25.25,ESE,104,0.0,5.8,15,0.00,,---,0.00,VWS V14.00,2013-05-22 16:11:00,
2013-05-22 09:16:00,77.2,26.0,25.25,NNE,16,2.7,5.4,15,0.00,,---,0.00,VWS V14.00,2013-05-22 16:16:00,
2013-05-22 09:21:00,77.2,26.0,25.25,NE,44,8.1,9.6,15,0.00,,---,0.00,VWS V14.00,2013-05-22 16:21:00,
2013-05-22 09:26:00,77.2,26.0,25.25,NE,44,7.6,7.6,15,0.00,,---,0.00,VWS V14.00,2013-05-22 16:26:00,
2013-05-22 09:31:00,77.2,26.0,25.25,NNE,18,6.3,6.7,15,0.00,,---,0.00,VWS V14.00,2013-05-22 16:31:00,
2013-05-22 09:36:00,77.2,26.0,25.25,North,10,0.0,0.0,15,0.00,,---,0.00,VWS V14.00,2013-05-22 16:36:00,
2013-05-22 09:41:00,77.2,26.0,25.25,NE,47,3.1,6.3,15,0.00,,---,0.00,VWS V14.00,2013-05-22 16:41:00,
2013-05-22 09:46:00,82.0,28.2,25.25,East,94,3.1,3.1,14,0.00,,---,0.00,VWS V14.00,2013-05-22 16:46:00,
2013-05-22 09:51:00,82.0,28.2,25.25,NNE,21,0.0,4.0,14,0.00,,---,0.00,VWS V14.00,2013-05-22 16:51:00,
2013-05-22 09:56:00,81.9,28.0,25.25,ESE,112,2.7,7.6,14,0.00,,---,0.00,VWS V14.00,2013-05-22 16:56:00,
2013-05-22 10:01:00,81.9,28.0,25.25,ENE,66,6.3,6.3,14,0.00,,---,0.00,VWS V14.00,2013-05-22 17:01:00,
2013-05-22 10:06:00,81.9,28.0,25.25,East,97,4.0,4.9,14,0.00,,---,0.00,VWS V14.00,2013-05-22 17:06:00,
2013-05-22 10:11:00,81.9,28.0,25.25,ENE,58,2.7,4.9,14,0.00,,---,0.00,VWS V14.00,2013-05-22 17:11:00,
2013-05-22 10:16:00,81.9,28.0,25.25,SE,135,3.1,4.0,14,0.00,,---,0.00,VWS V14.00,2013-05-22 17:16:00,
2013-05-22 10:21:00,81.9,28.0,25.25,South,184,5.4,5.4,14,0.00,,---,0.00,VWS V14.00,2013-05-22 17:21:00,
2013-05-22 10:26:00,81.9,28.0,25.25,SSE,149,0.0,3.6,14,0.00,,---,0.00,VWS V14.00,2013-05-22 17:26:00,
2013-05-22 10:31:00,81.9,28.0,25.25,South,175,7.6,7.6,14,0.00,,---,0.00,VWS V14.00,2013-05-22 17:31:00,
2013-05-22 10:36:00,81.9,28.0,25.25,SW,224,8.7,8.7,14,0.00,,---,0.00,VWS V14.00,2013-05-22 17:36:00,
2013-05-22 10:41:00,81.9,28.0,25.25,WSW,253,10.5,11.9,14,0.00,,---,0.00,VWS V14.00,2013-05-22 17:41:00,
2013-05-22 10:46:00,81.9,28.0,25.25,WSW,244,5.8,8.1,14,0.00,,---,0.00,VWS V14.00,2013-05-22 17:46:00,
2013-05-22 10:51:00,85.5,29.1,25.25,South,173,6.3,6.3,13,0.00,,---,0.00,VWS V14.00,2013-05-22 17:51:00,
2013-05-22 10:56:00,86.5,29.9,25.25,South,189,7.6,7.6,13,0.00,,---,0.00,VWS V14.00,2013-05-22 17:56:00,
2013-05-22 11:01:00,86.9,30.2,25.25,SW,217,10.1,10.1,13,0.00,,---,0.00,VWS V14.00,2013-05-22 18:01:00,
2013-05-22 11:06:00,86.9,30.2,25.25,South,182,5.8,5.8,13,0.00,,---,0.00,VWS V14.00,2013-05-22 18:06:00,
2013-05-22 11:11:00,86.9,30.2,25.25,SSE,160,8.3,8.3,13,0.00,,---,0.00,VWS V14.00,2013-05-22 18:11:00,
2013-05-22 11:16:00,86.9,30.2,25.25,South,185,6.7,8.3,13,0.00,,---,0.00,VWS V14.00,2013-05-22 18:16:00,
2013-05-22 11:21:00,86.9,30.2,25.25,SSW,201,0.0,2.7,13,0.00,,---,0.00,VWS V14.00,2013-05-22 18:21:00,
2013-05-22 11:26:00,86.9,30.2,25.25,South,188,8.1,8.3,13,0.00,,---,0.00,VWS V14.00,2013-05-22 18:26:00,
2013-05-22 11:31:00,86.9,30.2,25.22,West,259,2.7,10.1,13,0.00,,---,0.00,VWS V14.00,2013-05-22 18:31:00,
2013-05-22 11:37:00,86.9,30.2,25.22,South,170,5.4,9.6,13,0.00,,---,0.00,VWS V14.00,2013-05-22 18:37:00,
2013-05-22 11:42:00,86.9,30.2,25.22,SSW,192,4.0,4.0,13,0.00,,---,0.00,VWS V14.00,2013-05-22 18:42:00,
2013-05-22 11:47:00,86.9,30.2,25.22,SW,214,0.0,0.0,13,0.00,,---,0.00,VWS V14.00,2013-05-22 18:47:00,
2013-05-22 11:52:00,86.9,30.2,25.22,SE,139,3.6,11.0,13,0.00,,---,0.00,VWS V14.00,2013-05-22 18:52:00,
2013-05-22 11:57:00,86.9,30.2,25.22,WSW,249,8.3,10.1,13,0.00,,---,0.00,VWS V14.00,2013-05-22 18:57:00,
2013-05-22 12:02:00,86.9,30.2,25.22,WSW,239,7.6,8.7,13,0.00,,---,0.00,VWS V14.00,2013-05-22 19:02:00,
2013-05-22 12:07:00,86.7,30.0,25.22,SW,220,9.2,9.2,13,0.00,,---,0.00,VWS V14.00,2013-05-22 19:07:00,
2013-05-22 12:12:00,87.4,30.6,25.22,West,260,0.0,8.7,13,0.00,,---,0.00,VWS V14.00,2013-05-22 19:12:00,
2013-05-22 12:17:00,88.0,31.0,25.22,ESE,120,4.0,10.1,13,0.00,,---,0.00,VWS V14.00,2013-05-22 19:17:00,
2013-05-22 12:22:00,88.9,31.7,25.22,West,281,13.2,13.2,13,0.00,,---,0.00,VWS V14.00,2013-05-22 19:22:00,
2013-05-22 12:27:00,88.9,31.7,25.22,SSW,196,16.3,16.3,13,0.00,,---,0.00,VWS V14.00,2013-05-22 19:27:00,
2013-05-22 12:32:00,88.7,31.6,25.22,SW,229,11.0,11.0,13,0.00,,---,0.00,VWS V14.00,2013-05-22 19:32:00,
2013-05-22 12:37:00,88.7,31.6,25.22,SW,229,8.3,8.3,13,0.00,,---,0.00,VWS V14.00,2013-05-22 19:37:00,
2013-05-22 12:42:00,89.1,31.9,25.22,WSW,240,6.3,8.3,13,0.00,,---,0.00,VWS V14.00,2013-05-22 19:42:00,
2013-05-22 12:47:00,89.1,31.9,25.19,SW,222,7.6,10.1,13,0.00,,---,0.00,VWS V14.00,2013-05-22 19:47:00,
2013-05-22 12:52:00,88.9,31.7,25.19,South,169,8.1,9.6,13,0.00,,---,0.00,VWS V14.00,2013-05-22 19:52:00,
2013-05-22 12:57:00,88.5,31.5,25.19,SSW,208,5.8,8.3,13,0.00,,---,0.00,VWS V14.00,2013-05-22 19:57:00,
2013-05-22 13:02:00,88.7,31.6,25.19,South,191,11.9,14.1,13,0.00,,---,0.00,VWS V14.00,2013-05-22 20:02:00,
2013-05-22 13:07:00,89.6,30.3,25.19,South,180,6.3,6.3,12,0.00,,---,0.00,VWS V14.00,2013-05-22 20:07:00,
2013-05-22 13:12:00,90.0,30.6,25.19,South,177,8.1,8.1,12,0.00,,---,0.00,VWS V14.00,2013-05-22 20:12:00,
2013-05-22 13:17:00,90.0,30.6,25.19,South,179,4.0,4.0,12,0.00,,---,0.00,VWS V14.00,2013-05-22 20:17:00,
2013-05-22 13:22:00,90.0,30.6,25.19,South,191,10.5,14.1,12,0.00,,---,0.00,VWS V14.00,2013-05-22 20:22:00,
2013-05-22 13:27:00,90.0,30.6,25.19,SE,143,8.1,8.1,12,0.00,,---,0.00,VWS V14.00,2013-05-22 20:27:00,
2013-05-22 13:32:00,90.0,30.6,25.19,SW,223,10.1,10.1,12,0.00,,---,0.00,VWS V14.00,2013-05-22 20:32:00,
2013-05-22 13:37:00,90.5,31.0,25.19,SW,233,6.3,8.7,12,0.00,,---,0.00,VWS V14.00,2013-05-22 20:37:00,
2013-05-22 13:42:00,90.7,31.2,25.19,SSW,206,8.1,8.1,12,0.00,,---,0.00,VWS V14.00,2013-05-22 20:42:00,
2013-05-22 13:47:00,90.7,31.2,25.19,SSW,196,6.7,8.7,12,0.00,,---,0.00,VWS V14.00,2013-05-22 20:47:00,
2013-05-22 13:52:00,90.7,31.2,25.19,South,189,5.4,7.6,12,0.00,,---,0.00,VWS V14.00,2013-05-22 20:52:00,
2013-05-22 13:57:00,90.7,31.2,25.19,South,189,10.5,10.5,12,0.00,,---,0.00,VWS V14.00,2013-05-22 20:57:00,
2013-05-22 14:02:00,90.7,31.2,25.19,South,176,11.0,11.0,12,0.00,,---,0.00,VWS V14.00,2013-05-22 21:02:00,
2013-05-22 14:07:00,90.7,31.2,25.19,SSW,198,8.1,8.1,12,0.00,,---,0.00,VWS V14.00,2013-05-22 21:07:00,
2013-05-22 14:12:00,90.7,31.2,25.19,SSE,167,10.1,11.4,12,0.00,,---,0.00,VWS V14.00,2013-05-22 21:12:00,
2013-05-22 14:17:00,90.7,31.2,25.19,SSW,196,4.9,4.9,12,0.00,,---,0.00,VWS V14.00,2013-05-22 21:17:00,
2013-05-22 14:22:00,90.7,31.2,25.19,SSE,168,15.0,15.0,12,0.00,,---,0.00,VWS V14.00,2013-05-22 21:22:00,
2013-05-22 14:27:00,90.3,30.9,25.16,South,171,5.8,6.3,12,0.00,,---,0.00,VWS V14.00,2013-05-22 21:27:00,
2013-05-22 14:32:00,90.3,30.9,25.16,SSW,198,12.8,12.8,12,0.00,,---,0.00,VWS V14.00,2013-05-22 21:32:00,
2013-05-22 14:37:00,90.3,30.9,25.16,SW,218,8.7,11.9,12,0.00,,---,0.00,VWS V14.00,2013-05-22 21:37:00,
2013-05-22 14:42:00,90.3,30.9,25.16,South,182,5.4,8.1,12,0.00,,---,0.00,VWS V14.00,2013-05-22 21:42:00,
2013-05-22 14:47:00,90.3,30.9,25.16,South,176,7.6,15.4,12,0.00,,---,0.00,VWS V14.00,2013-05-22 21:47:00,
2013-05-22 14:52:00,90.3,30.9,25.16,SW,219,7.2,11.0,12,0.00,,---,0.00,VWS V14.00,2013-05-22 21:52:00,
2013-05-22 14:57:00,90.3,30.9,25.16,SW,231,11.0,11.0,12,0.00,,---,0.00,VWS V14.00,2013-05-22 21:57:00,
2013-05-22 15:02:00,90.3,30.9,25.16,SW,234,6.3,6.3,12,0.00,,---,0.00,VWS V14.00,2013-05-22 22:02:00,
2013-05-22 15:07:00,90.3,30.9,25.16,SW,217,6.3,7.6,12,0.00,,---,0.00,VWS V14.00,2013-05-22 22:07:00,
2013-05-22 15:12:00,90.3,30.9,25.16,WSW,244,3.1,6.3,12,0.00,,---,0.00,VWS V14.00,2013-05-22 22:12:00,
2013-05-22 15:17:00,90.3,30.9,25.16,WSW,237,7.6,8.1,12,0.00,,---,0.00,VWS V14.00,2013-05-22 22:17:00,
2013-05-22 15:22:00,90.3,30.9,25.16,South,190,0.0,8.7,12,0.00,,---,0.00,VWS V14.00,2013-05-22 22:22:00,
2013-05-22 15:27:00,90.3,30.9,25.16,WSW,245,8.7,12.8,12,0.00,,---,0.00,VWS V14.00,2013-05-22 22:27:00,
2013-05-22 15:32:00,90.3,30.9,25.16,West,274,9.6,9.6,12,0.00,,---,0.00,VWS V14.00,2013-05-22 22:32:00,
2013-05-22 15:38:00,90.3,30.9,25.16,SW,230,12.3,12.3,12,0.00,,---,0.00,VWS V14.00,2013-05-22 22:38:00,
2013-05-22 15:43:00,91.0,31.4,25.16,South,177,5.4,5.4,12,0.00,,---,0.00,VWS V14.00,2013-05-22 22:43:00,
2013-05-22 15:48:00,91.2,31.6,25.16,South,185,5.4,11.0,12,0.00,,---,0.00,VWS V14.00,2013-05-22 22:48:00,
2013-05-22 15:53:00,91.2,31.6,25.16,SW,235,5.4,5.8,12,0.00,,---,0.00,VWS V14.00,2013-05-22 22:53:00,
2013-05-22 15:58:00,91.4,31.7,25.16,WSW,251,4.9,4.9,12,0.00,,---,0.00,VWS V14.00,2013-05-22 22:58:00,
2013-05-22 16:03:00,91.6,31.9,25.16,West,268,11.4,12.8,12,0.00,,---,0.00,VWS V14.00,2013-05-22 23:03:00,
2013-05-22 16:08:00,90.9,31.3,25.16,SSW,194,4.9,5.4,12,0.00,,---,0.00,VWS V14.00,2013-05-22 23:08:00,
2013-05-22 16:13:00,91.0,31.4,25.16,South,183,5.4,8.3,12,0.00,,---,0.00,VWS V14.00,2013-05-22 23:13:00,
2013-05-22 16:18:00,91.0,31.4,25.16,West,268,6.3,10.5,12,0.00,,---,0.00,VWS V14.00,2013-05-22 23:18:00,
2013-05-22 16:23:00,91.2,31.6,25.16,West,276,5.4,8.1,12,0.00,,---,0.00,VWS V14.00,2013-05-22 23:23:00,
2013-05-22 16:28:00,91.0,31.4,25.16,SSE,167,4.0,4.0,12,0.00,,---,0.00,VWS V14.00,2013-05-22 23:28:00,
2013-05-22 16:33:00,90.5,31.0,25.16,South,173,5.8,8.3,12,0.00,,---,0.00,VWS V14.00,2013-05-22 23:33:00,
2013-05-22 16:38:00,90.3,30.9,25.16,SW,219,4.0,4.0,12,0.00,,---,0.00,VWS V14.00,2013-05-22 23:38:00,
2013-05-22 16:43:00,90.3,30.9,25.13,SE,141,8.3,8.3,12,0.00,,---,0.00,VWS V14.00,2013-05-22 23:43:00,
2013-05-22 16:48:00,90.3,30.9,25.13,SW,224,9.2,10.1,12,0.00,,---,0.00,VWS V14.00,2013-05-22 23:48:00,
2013-05-22 16:53:00,90.0,30.6,25.13,SW,218,4.9,5.4,12,0.00,,---,0.00,VWS V14.00,2013-05-22 23:53:00,
2013-05-22 16:58:00,90.0,30.6,25.13,SW,236,3.1,3.1,12,0.00,,---,0.00,VWS V14.00,2013-05-22 23:58:00,
2013-05-22 17:03:00,90.0,30.6,25.13,SSE,154,8.1,8.3,12,0.00,,---,0.00,VWS V14.00,2013-05-23 00:03:00,
2013-05-22 17:08:00,89.2,32.0,25.13,South,176,2.7,2.7,13,0.00,,---,0.00,VWS V14.00,2013-05-23 00:08:00,
2013-05-22 17:13:00,89.2,32.0,25.13,West,281,8.7,12.3,13,0.00,,---,0.00,VWS V14.00,2013-05-23 00:13:00,
2013-05-22 17:18:00,89.2,32.0,25.13,WSW,238,0.0,2.7,13,0.00,,---,0.00,VWS V14.00,2013-05-23 00:18:00,
2013-05-22 17:23:00,89.2,32.0,25.13,SW,215,2.7,5.4,13,0.00,,---,0.00,VWS V14.00,2013-05-23 00:23:00,
2013-05-22 17:28:00,89.2,32.0,25.13,South,170,3.1,3.6,13,0.00,,---,0.00,VWS V14.00,2013-05-23 00:28:00,
2013-05-22 17:33:00,89.2,32.0,25.13,WSW,237,0.0,0.0,13,0.00,,---,0.00,VWS V14.00,2013-05-23 00:33:00,
2013-05-22 17:38:00,89.2,32.0,25.13,SW,218,8.3,8.3,13,0.00,,---,0.00,VWS V14.00,2013-05-23 00:38:00,
2013-05-22 17:43:00,89.2,32.0,25.13,SW,220,5.4,6.3,13,0.00,,---,0.00,VWS V14.00,2013-05-23 00:43:00,
2013-05-22 17:48:00,89.2,32.0,25.13,SW,223,4.0,4.0,13,0.00,,---,0.00,VWS V14.00,2013-05-23 00:48:00,
2013-05-22 17:53:00,89.2,32.0,25.13,WNW,302,8.7,8.7,13,0.00,,---,0.00,VWS V14.00,2013-05-23 00:53:00,
2013-05-22 17:58:00,89.2,32.0,25.13,WSW,244,13.2,13.2,13,0.00,,---,0.00,VWS V14.00,2013-05-23 00:58:00,
2013-05-22 18:03:00,89.2,32.0,25.13,SSW,192,4.0,5.8,13,0.00,,---,0.00,VWS V14.00,2013-05-23 01:03:00,
2013-05-22 18:08:00,89.2,32.0,25.13,South,185,3.6,5.4,13,0.00,,---,0.00,VWS V14.00,2013-05-23 01:08:00,
2013-05-22 18:13:00,89.2,32.0,25.16,SW,236,6.3,6.3,13,0.00,,---,0.00,VWS V14.00,2013-05-23 01:13:00,
2013-05-22 18:18:00,89.2,32.0,25.16,SW,234,5.4,11.0,13,0.00,,---,0.00,VWS V14.00,2013-05-23 01:18:00,
2013-05-22 18:23:00,89.2,32.0,25.16,SW,234,2.7,3.1,13,0.00,,---,0.00,VWS V14.00,2013-05-23 01:23:00,
2013-05-22 18:28:00,89.2,32.0,25.16,SW,234,5.8,5.8,13,0.00,,---,0.00,VWS V14.00,2013-05-23 01:28:00,
2013-05-22 18:33:00,89.2,32.0,25.16,WSW,248,8.1,8.1,13,0.00,,---,0.00,VWS V14.00,2013-05-23 01:33:00,
2013-05-22 18:38:00,89.2,32.0,25.16,SSW,212,3.1,4.9,13,0.00,,---,0.00,VWS V14.00,2013-05-23 01:38:00,
2013-05-22 18:43:00,89.2,32.0,25.16,WSW,240,5.8,5.8,13,0.00,,---,0.00,VWS V14.00,2013-05-23 01:43:00,
2013-05-22 18:48:00,89.2,32.0,25.16,WSW,238,3.1,5.4,13,0.00,,---,0.00,VWS V14.00,2013-05-23 01:48:00,
2013-05-22 18:53:00,83.8,29.6,25.16,SW,232,5.8,5.8,14,0.00,,---,0.00,VWS V14.00,2013-05-23 01:53:00,
2013-05-22 18:58:00,83.8,29.6,25.16,SW,227,5.8,8.1,14,0.00,,---,0.00,VWS V14.00,2013-05-23 01:58:00,
2013-05-22 19:03:00,83.8,29.6,25.16,WSW,240,7.6,8.3,14,0.00,,---,0.00,VWS V14.00,2013-05-23 02:03:00,
2013-05-22 19:08:00,81.7,27.9,25.16,SW,232,8.7,10.1,14,0.00,,---,0.00,VWS V14.00,2013-05-23 02:08:00,
2013-05-22 19:13:00,81.7,27.9,25.16,SW,217,3.6,5.8,14,0.00,,---,0.00,VWS V14.00,2013-05-23 02:13:00,
2013-05-22 19:18:00,81.7,27.9,25.16,SW,232,8.7,14.1,14,0.00,,---,0.00,VWS V14.00,2013-05-23 02:18:00,
2013-05-22 19:23:00,81.7,27.9,25.16,SW,228,9.6,10.1,14,0.00,,---,0.00,VWS V14.00,2013-05-23 02:23:00,
2013-05-22 19:28:00,81.7,27.9,25.16,SW,231,13.2,13.2,14,0.00,,---,0.00,VWS V14.00,2013-05-23 02:28:00,
2013-05-22 19:33:00,81.7,27.9,25.16,SW,216,8.3,8.7,14,0.00,,---,0.00,VWS V14.00,2013-05-23 02:33:00,
2013-05-22 19:38:00,81.5,27.8,25.16,SW,220,7.6,10.5,14,0.00,,---,0.00,VWS V14.00,2013-05-23 02:38:00,
2013-05-22 19:43:00,81.5,27.8,25.16,SSW,208,8.7,11.0,14,0.00,,---,0.00,VWS V14.00,2013-05-23 02:43:00,
2013-05-22 19:48:00,81.5,27.8,25.16,West,263,8.7,11.0,14,0.00,,---,0.00,VWS V14.00,2013-05-23 02:48:00,
2013-05-22 19:54:00,81.5,27.8,25.16,SW,216,8.3,13.2,14,0.00,,---,0.00,VWS V14.00,2013-05-23 02:54:00,
2013-05-22 19:59:00,81.5,27.8,25.16,WSW,242,8.3,10.5,14,0.00,,---,0.00,VWS V14.00,2013-05-23 02:59:00,
2013-05-22 20:04:00,81.5,27.8,25.16,WSW,252,8.7,8.7,14,0.00,,---,0.00,VWS V14.00,2013-05-23 03:04:00,
2013-05-22 20:09:00,80.6,27.0,25.16,WSW,252,8.1,13.2,14,0.00,,---,0.00,VWS V14.00,2013-05-23 03:09:00,
2013-05-22 20:14:00,80.4,28.6,25.16,SSW,213,10.5,12.8,15,0.00,,---,0.00,VWS V14.00,2013-05-23 03:14:00,
2013-05-22 20:19:00,80.4,28.6,25.16,WSW,248,13.2,13.2,15,0.00,,---,0.00,VWS V14.00,2013-05-23 03:19:00,
2013-05-22 20:24:00,80.2,28.4,25.16,SW,230,12.8,12.8,15,0.00,,---,0.00,VWS V14.00,2013-05-23 03:24:00,
2013-05-22 20:29:00,80.1,28.3,25.16,SW,231,10.1,13.2,15,0.00,,---,0.00,VWS V14.00,2013-05-23 03:29:00,
2013-05-22 20:34:00,80.1,28.3,25.16,SW,227,11.0,11.0,15,0.00,,---,0.00,VWS V14.00,2013-05-23 03:34:00,
2013-05-22 20:39:00,80.1,28.3,25.16,SW,227,11.0,11.0,15,0.00,,---,0.00,VWS V14.00,2013-05-23 03:39:00,
2013-05-22 20:44:00,79.9,28.1,25.16,SW,227,11.0,11.0,15,0.00,,---,0.00,VWS V14.00,2013-05-23 03:44:00,
2013-05-22 20:49:00,79.7,28.0,25.16,SW,227,11.0,11.0,15,0.00,,---,0.00,VWS V14.00,2013-05-23 03:49:00,
2013-05-22 20:54:00,79.7,28.0,25.16,SW,227,11.0,11.0,15,0.00,,---,0.00,VWS V14.00,2013-05-23 03:54:00,
2013-05-22 20:59:00,79.7,28.0,25.16,SW,227,11.0,11.0,15,0.00,,---,0.00,VWS V14.00,2013-05-23 03:59:00,
2013-05-22 21:01:00,79.5,27.9,25.16,SW,227,11.0,11.0,15,0.00,,---,0.00,VWS V14.00,2013-05-23 04:01:00,
2013-05-22 21:02:00,79.5,27.9,25.16,SW,227,11.0,11.0,15,0.00,,---,0.00,VWS V14.00,2013-05-23 04:02:00,
2013-05-22 21:03:00,79.5,27.9,25.16,SW,227,11.0,11.0,15,0.00,,---,0.00,VWS V14.00,2013-05-23 04:03:00,
2013-05-22 21:04:00,79.5,27.9,25.16,SW,227,11.0,11.0,15,0.00,,---,0.00,VWS V14.00,2013-05-23 04:04:00,
2013-05-22 21:09:00,79.7,28.0,25.16,SW,227,11.0,11.0,15,0.00,,---,0.00,VWS V14.00,2013-05-23 04:09:00,
2013-05-22 21:14:00,79.7,28.0,25.16,SW,227,11.0,11.0,15,0.00,,---,0.00,VWS V14.00,2013-05-23 04:14:00,
2013-05-22 21:19:00,79.5,27.9,25.16,SW,227,11.0,11.0,15,0.00,,---,0.00,VWS V14.00,2013-05-23 04:19:00,
2013-05-22 21:24:00,79.2,27.6,25.16,SW,227,11.0,11.0,15,0.00,,---,0.00,VWS V14.00,2013-05-23 04:24:00,
2013-05-22 21:29:00,79.0,27.4,25.16,SW,227,11.0,11.0,15,0.00,,---,0.00,VWS V14.00,2013-05-23 04:29:00,
2013-05-22 21:34:00,79.2,27.6,25.16,SW,227,11.0,11.0,15,0.00,,---,0.00,VWS V14.00,2013-05-23 04:34:00,
2013-05-22 21:39:00,79.0,27.4,25.16,SW,227,11.0,11.0,15,0.00,,---,0.00,VWS V14.00,2013-05-23 04:39:00,
2013-05-22 21:44:00,79.0,27.4,25.19,SW,227,11.0,11.0,15,0.00,,---,0.00,VWS V14.00,2013-05-23 04:44:00,
2013-05-22 21:49:00,79.0,27.4,25.19,SW,227,11.0,11.0,15,0.00,,---,0.00,VWS V14.00,2013-05-23 04:49:00,
2013-05-22 21:54:00,79.0,27.4,25.19,SW,227,11.0,11.0,15,0.00,,---,0.00,VWS V14.00,2013-05-23 04:54:00,
2013-05-22 21:59:00,78.8,27.3,25.19,SW,227,11.0,11.0,15,0.00,,---,0.00,VWS V14.00,2013-05-23 04:59:00,
2013-05-22 22:04:00,78.6,27.1,25.19,SW,227,11.0,11.0,15,0.00,,---,0.00,VWS V14.00,2013-05-23 05:04:00,
2013-05-22 22:09:00,78.6,27.1,25.19,SW,227,11.0,11.0,15,0.00,,---,0.00,VWS V14.00,2013-05-23 05:09:00,
2013-05-22 22:14:00,78.3,26.9,25.19,SW,227,11.0,11.0,15,0.00,,---,0.00,VWS V14.00,2013-05-23 05:14:00,
2013-05-22 22:19:00,78.3,26.9,25.19,SW,227,11.0,11.0,15,0.00,,---,0.00,VWS V14.00,2013-05-23 05:19:00,
2013-05-22 22:24:00,77.9,26.6,25.19,SW,227,11.0,11.0,15,0.00,,---,0.00,VWS V14.00,2013-05-23 05:24:00,
2013-05-22 22:29:00,77.9,26.6,25.19,SW,227,11.0,11.0,15,0.00,,---,0.00,VWS V14.00,2013-05-23 05:29:00,
2013-05-22 22:34:00,77.7,26.4,25.19,SW,227,11.0,11.0,15,0.00,,---,0.00,VWS V14.00,2013-05-23 05:34:00,
2013-05-22 22:39:00,77.5,26.3,25.19,SW,227,11.0,11.0,15,0.00,,---,0.00,VWS V14.00,2013-05-23 05:39:00,
2013-05-22 22:44:00,77.4,26.1,25.19,SW,227,11.0,11.0,15,0.00,,---,0.00,VWS V14.00,2013-05-23 05:44:00,
2013-05-22 22:49:00,77.5,26.3,25.19,SSW,209,15.4,15.4,15,0.00,,---,0.00,VWS V14.00,2013-05-23 05:49:00,
2013-05-22 22:54:00,77.5,26.3,25.19,SSW,209,15.4,15.4,15,0.00,,---,0.00,VWS V14.00,2013-05-23 05:54:00,
2013-05-22 22:59:00,77.5,26.3,25.19,SSW,209,15.4,15.4,15,0.00,,---,0.00,VWS V14.00,2013-05-23 05:59:00,
2013-05-22 23:04:00,77.4,26.1,25.19,SSW,209,15.4,15.4,15,0.00,,---,0.00,VWS V14.00,2013-05-23 06:04:00,
2013-05-22 23:09:00,77.2,26.0,25.19,SSW,209,15.4,15.4,15,0.00,,---,0.00,VWS V14.00,2013-05-23 06:09:00,
2013-05-22 23:14:00,77.2,26.0,25.19,SSW,209,15.4,15.4,15,0.00,,---,0.00,VWS V14.00,2013-05-23 06:14:00,
2013-05-22 23:19:00,77.2,26.0,25.19,SW,219,13.2,13.2,15,0.00,,---,0.00,VWS V14.00,2013-05-23 06:19:00,
2013-05-22 23:24:00,77.0,25.9,25.19,WSW,243,17.4,17.4,15,0.00,,---,0.00,VWS V14.00,2013-05-23 06:24:00,
2013-05-22 23:29:00,76.8,25.7,25.19,WSW,238,15.0,15.0,15,0.00,,---,0.00,VWS V14.00,2013-05-23 06:29:00,
2013-05-22 23:34:00,76.6,25.6,25.19,SW,215,8.7,8.7,15,0.00,,---,0.00,VWS V14.00,2013-05-23 06:34:00,
2013-05-22 23:39:00,76.6,25.6,25.19,SW,215,8.7,8.7,15,0.00,,---,0.00,VWS V14.00,2013-05-23 06:39:00,
2013-05-22 23:44:00,76.6,25.6,25.19,SW,218,17.4,17.4,15,0.00,,---,0.00,VWS V14.00,2013-05-23 06:44:00,
2013-05-22 23:49:00,76.5,25.4,25.19,WSW,247,25.5,25.5,15,0.00,,---,0.00,VWS V14.00,2013-05-23 06:49:00,
2013-05-22 23:54:00,76.3,25.3,25.19,SW,228,12.8,12.8,15,0.00,,---,0.00,VWS V14.00,2013-05-23 06:54:00,
2013-05-22 23:59:00,76.1,25.1,25.19,SW,228,12.8,12.8,15,0.00,,---,0.00,VWS V14.00,2013-05-23 06:59:00,